createdAt,value
2022-10-22T00:01:05.158Z,75853.97
2022-10-22T00:03:33.121Z,75841.72
2022-10-22T00:06:00.899Z,75841.72
2022-10-22T00:08:28.886Z,75851.91
2022-10-22T00:10:56.740Z,75853.97
2022-10-22T00:13:26.447Z,75866.19
2022-10-22T00:15:54.302Z,75862.13
2022-10-22T00:18:22.489Z,75849.88
2022-10-22T00:20:50.286Z,75847.84
2022-10-22T00:23:18.161Z,75845.81
2022-10-22T00:25:45.992Z,75860.06
2022-10-22T00:28:14.948Z,75874.34
2022-10-22T00:30:44.159Z,75878.44
2022-10-22T00:33:12.004Z,75870.28
2022-10-22T00:35:39.946Z,75868.22
2022-10-22T00:38:07.780Z,75866.19
2022-10-22T00:40:35.569Z,75862.13
2022-10-22T00:43:03.406Z,75860.06
2022-10-22T00:45:31.459Z,75845.81
2022-10-22T00:48:04.820Z,75849.88
2022-10-22T00:50:36.617Z,75849.88
2022-10-22T00:53:07.521Z,75853.97
2022-10-22T00:55:36.177Z,75853.97
2022-10-22T00:58:04.607Z,75858.03
2022-10-22T01:00:32.987Z,75862.13
2022-10-22T01:03:02.754Z,75858.03
2022-10-22T01:05:33.567Z,75866.19
2022-10-22T01:08:01.401Z,75864.16
2022-10-22T01:10:52.285Z,75870.28
2022-10-22T01:13:33.536Z,75860.06
2022-10-22T01:16:10.085Z,75862.13
2022-10-22T01:18:47.466Z,75858.03
2022-10-22T01:21:27.291Z,75858.03
2022-10-22T01:24:17.041Z,75849.88
2022-10-22T01:26:58.495Z,75841.72
2022-10-22T01:29:31.403Z,75833.56
2022-10-22T01:32:03.388Z,75837.66
2022-10-22T01:34:33.277Z,75837.66
2022-10-22T01:37:02.239Z,75829.50
2022-10-22T01:39:31.906Z,75825.41
2022-10-22T01:41:59.742Z,75817.25
2022-10-22T01:44:31.191Z,75821.34
2022-10-22T01:47:15.063Z,75827.47
2022-10-22T01:50:20.046Z,75831.53
2022-10-22T01:53:03.437Z,75829.50
2022-10-22T01:55:42.009Z,75839.69
2022-10-22T01:58:22.782Z,75829.50
2022-10-22T02:00:58.239Z,75819.31
2022-10-22T02:03:30.234Z,75825.41
2022-10-22T02:06:03.906Z,75831.53
2022-10-22T02:08:34.667Z,75833.56
2022-10-22T02:11:03.187Z,75837.66
2022-10-22T02:13:36.021Z,75833.56
2022-10-22T02:16:08.997Z,75845.81
2022-10-22T02:18:41.066Z,75853.97
2022-10-22T02:21:09.672Z,75853.97
2022-10-22T02:23:38.066Z,75862.13
2022-10-22T02:26:12.762Z,75862.13
2022-10-22T02:28:47.438Z,75862.13
2022-10-22T02:31:20.666Z,75870.28
2022-10-22T02:33:52.750Z,75870.28
2022-10-22T02:36:21.721Z,75866.19
2022-10-22T02:38:52.443Z,75866.19
2022-10-22T02:41:20.886Z,75862.13
2022-10-22T02:43:52.400Z,75862.13
2022-10-22T02:46:21.825Z,75858.03
2022-10-22T02:48:49.682Z,75841.72
2022-10-22T02:51:17.555Z,75833.56
2022-10-22T02:53:45.346Z,75829.50
2022-10-22T02:56:14.199Z,75825.41
2022-10-22T02:58:41.993Z,75823.38
2022-10-22T03:01:12.393Z,75829.50
2022-10-22T03:03:44.545Z,75845.81
2022-10-22T03:06:12.411Z,75847.84
2022-10-22T03:08:40.287Z,75845.81
2022-10-22T03:11:08.449Z,75833.56
2022-10-22T03:13:36.321Z,75841.72
2022-10-22T03:16:04.137Z,75843.75
2022-10-22T03:18:31.982Z,75853.97
2022-10-22T03:21:09.113Z,75864.16
2022-10-22T03:23:38.361Z,75868.22
2022-10-22T03:26:07.135Z,75870.28
2022-10-22T03:28:36.321Z,75882.50
2022-10-22T03:31:04.227Z,75870.28
2022-10-22T03:33:32.041Z,75866.19
2022-10-22T03:36:01.365Z,75878.44
2022-10-22T03:38:31.118Z,75886.56
2022-10-22T03:40:59.604Z,75892.69
2022-10-22T03:43:27.742Z,75898.81
2022-10-22T03:45:55.609Z,75886.56
2022-10-22T03:48:23.471Z,75878.44
2022-10-22T03:50:51.262Z,75878.44
2022-10-22T03:53:19.164Z,75878.44
2022-10-22T03:55:48.330Z,75882.50
2022-10-22T03:58:16.126Z,75882.50
2022-10-22T04:00:44.006Z,75886.56
2022-10-22T04:03:11.830Z,75890.66
2022-10-22T04:05:39.606Z,75886.56
2022-10-22T04:08:07.554Z,75882.50
2022-10-22T04:10:35.564Z,75886.56
2022-10-22T04:13:04.696Z,75896.78
2022-10-22T04:15:33.124Z,75894.75
2022-10-22T04:18:01.151Z,75886.56
2022-10-22T04:20:29.009Z,75894.75
2022-10-22T04:22:56.837Z,75890.66
2022-10-22T04:25:24.627Z,75884.53
2022-10-22T04:27:52.471Z,75878.44
2022-10-22T04:30:21.671Z,75870.28
2022-10-22T04:32:49.481Z,75866.19
2022-10-22T04:35:17.593Z,75882.50
2022-10-22T04:37:45.474Z,75890.66
2022-10-22T04:40:14.016Z,75882.50
2022-10-22T04:42:41.866Z,75898.81
2022-10-22T04:45:10.869Z,75919.19
2022-10-22T04:47:40.286Z,75923.28
2022-10-22T04:50:09.304Z,75919.19
2022-10-22T04:52:37.121Z,75927.34
2022-10-22T04:55:05.234Z,75945.69
2022-10-22T04:57:33.085Z,75947.75
2022-10-22T05:00:01.051Z,75945.69
2022-10-22T05:02:28.912Z,75947.75
2022-10-22T05:04:58.110Z,75959.97
2022-10-22T05:07:26.071Z,75972.22
2022-10-22T05:09:54.573Z,75972.22
2022-10-22T05:12:22.442Z,75980.34
2022-10-22T05:14:50.217Z,75968.13
2022-10-22T05:17:17.991Z,75964.06
2022-10-22T05:19:45.810Z,75959.97
2022-10-22T05:22:15.156Z,75964.06
2022-10-22T05:24:42.947Z,75964.06
2022-10-22T05:27:10.872Z,75957.94
2022-10-22T05:29:38.925Z,75976.28
2022-10-22T05:32:06.738Z,75984.44
2022-10-22T05:34:36.140Z,75986.47
2022-10-22T05:37:03.937Z,75984.44
2022-10-22T05:39:36.649Z,75988.50
2022-10-22T05:42:04.961Z,75988.50
2022-10-22T05:44:32.967Z,75980.34
2022-10-22T05:47:00.738Z,75986.47
2022-10-22T05:49:28.566Z,75982.41
2022-10-22T05:51:56.343Z,75976.28
2022-10-22T05:54:24.152Z,75962.00
2022-10-22T05:56:54.341Z,75959.97
2022-10-22T05:59:22.121Z,75955.91
2022-10-22T06:01:50.118Z,75968.13
2022-10-22T06:04:18.066Z,75988.50
2022-10-22T06:06:48.526Z,75992.59
2022-10-22T06:09:20.537Z,75996.66
2022-10-22T06:11:49.373Z,75984.44
2022-10-22T06:14:20.241Z,75976.28
2022-10-22T06:16:48.234Z,75984.44
2022-10-22T06:19:20.401Z,75992.59
2022-10-22T06:21:48.745Z,75990.56
2022-10-22T06:24:17.339Z,75994.63
2022-10-22T06:26:45.504Z,75994.63
2022-10-22T06:29:13.529Z,75992.59
2022-10-22T06:31:42.781Z,76008.91
2022-10-22T06:34:14.679Z,76004.81
2022-10-22T06:36:44.828Z,76000.75
2022-10-22T06:39:13.314Z,75992.59
2022-10-22T06:41:41.461Z,75996.66
2022-10-22T06:44:14.296Z,75996.66
2022-10-22T06:46:44.214Z,76002.78
2022-10-22T06:49:14.230Z,75990.56
2022-10-22T06:51:42.505Z,75996.66
2022-10-22T06:54:10.816Z,76000.75
2022-10-22T06:56:38.987Z,76006.88
2022-10-22T06:59:06.837Z,75992.59
2022-10-22T07:01:36.961Z,75990.56
2022-10-22T07:04:08.933Z,76000.75
2022-10-22T07:06:36.978Z,76000.75
2022-10-22T07:09:05.029Z,76008.91
2022-10-22T07:11:40.391Z,76015.03
2022-10-22T07:14:08.647Z,76025.22
2022-10-22T07:16:36.857Z,76029.28
2022-10-22T07:19:06.695Z,76015.03
2022-10-22T07:21:34.537Z,76010.94
2022-10-22T07:24:02.340Z,76017.06
2022-10-22T07:26:32.751Z,76008.91
2022-10-22T07:29:00.909Z,76012.97
2022-10-22T07:31:29.346Z,76004.81
2022-10-22T07:33:57.166Z,76008.91
2022-10-22T07:36:26.391Z,76008.91
2022-10-22T07:38:59.434Z,76004.81
2022-10-22T07:41:28.717Z,75996.66
2022-10-22T07:43:56.976Z,75988.50
2022-10-22T07:46:25.725Z,75988.50
2022-10-22T07:48:53.813Z,75988.50
2022-10-22T07:51:22.153Z,75970.16
2022-10-22T07:53:51.451Z,75972.22
2022-10-22T07:56:19.311Z,75947.75
2022-10-22T07:58:47.148Z,75939.59
2022-10-22T08:01:15.372Z,75933.47
2022-10-22T08:03:43.241Z,75917.16
2022-10-22T08:06:13.958Z,75915.13
2022-10-22T08:08:41.888Z,75898.81
2022-10-22T08:11:12.515Z,75902.88
2022-10-22T08:13:44.823Z,75898.81
2022-10-22T08:16:13.366Z,75896.78
2022-10-22T08:18:41.234Z,75886.56
2022-10-22T08:21:09.143Z,75884.53
2022-10-22T08:23:37.129Z,75882.50
2022-10-22T08:26:05.537Z,75878.44
2022-10-22T08:28:37.098Z,75866.19
2022-10-22T08:31:05.322Z,75866.19
2022-10-22T08:33:33.170Z,75870.28
2022-10-22T08:36:01.287Z,75853.97
2022-10-22T08:38:31.293Z,75849.88
2022-10-22T08:41:08.730Z,75837.66
2022-10-22T08:44:06.708Z,75829.50
2022-10-22T08:46:44.332Z,75829.50
2022-10-22T08:49:17.981Z,75819.31
2022-10-22T08:51:46.246Z,75794.84
2022-10-22T08:54:23.633Z,75784.66
2022-10-22T08:57:05.997Z,75776.50
2022-10-22T08:59:45.414Z,75764.25
2022-10-22T09:02:28.323Z,75750.00
2022-10-22T09:05:10.020Z,75737.75
2022-10-22T09:07:50.028Z,75721.44
2022-10-22T09:10:19.011Z,75697.00
2022-10-22T09:12:49.000Z,75674.56
2022-10-22T09:15:20.181Z,75654.19
2022-10-22T09:18:00.902Z,75641.94
2022-10-22T09:20:39.673Z,75633.78
2022-10-22T09:23:22.879Z,75621.56
2022-10-22T09:25:53.200Z,75617.50
2022-10-22T09:28:22.315Z,75603.22
2022-10-22T09:30:51.604Z,75601.19
2022-10-22T09:33:26.176Z,75588.94
2022-10-22T09:35:57.542Z,75580.78
2022-10-22T09:38:28.125Z,75576.72
2022-10-22T09:40:57.859Z,75588.94
2022-10-22T09:43:26.064Z,75576.72
2022-10-22T09:45:59.839Z,75578.75
2022-10-22T09:48:32.156Z,75588.94
2022-10-22T09:51:06.310Z,75588.94
2022-10-22T09:53:38.893Z,75593.03
2022-10-22T09:56:09.922Z,75586.91
2022-10-22T09:58:44.951Z,75580.78
2022-10-22T10:01:20.475Z,75582.84
2022-10-22T10:03:50.422Z,75584.88
2022-10-22T10:06:23.518Z,75588.94
2022-10-22T10:08:51.713Z,75572.63
2022-10-22T10:11:29.395Z,75572.63
2022-10-22T10:14:08.092Z,75554.28
2022-10-22T10:16:50.278Z,75548.19
2022-10-22T10:19:35.676Z,75544.09
2022-10-22T10:22:14.306Z,75544.09
2022-10-22T10:25:12.608Z,75544.09
2022-10-22T10:27:43.874Z,75560.41
2022-10-22T10:30:16.028Z,75562.44
2022-10-22T10:33:05.952Z,75560.41
2022-10-22T10:35:46.307Z,75564.47
2022-10-22T10:38:27.327Z,75556.34
2022-10-22T10:41:05.518Z,75550.22
2022-10-22T10:43:45.606Z,75548.19
2022-10-22T10:46:19.538Z,75540.03
2022-10-22T10:48:56.458Z,75548.19
2022-10-22T10:51:38.524Z,75550.22
2022-10-22T10:54:19.621Z,75550.22
2022-10-22T10:56:52.826Z,75560.41
2022-10-22T10:59:35.910Z,75556.34
2022-10-22T11:02:47.551Z,75548.19
2022-10-22T11:05:33.677Z,75550.22
2022-10-22T11:08:05.937Z,75546.13
2022-10-22T11:10:38.241Z,75540.03
2022-10-22T11:13:16.348Z,75535.94
2022-10-22T11:15:51.538Z,75531.88
2022-10-22T11:18:24.593Z,75527.78
2022-10-22T11:21:04.366Z,75535.94
2022-10-22T11:23:38.966Z,75544.09
2022-10-22T11:26:14.243Z,75533.91
2022-10-22T11:28:47.081Z,75533.91
2022-10-22T11:31:17.656Z,75531.88
2022-10-22T11:34:04.736Z,75535.94
2022-10-22T11:36:46.184Z,75531.88
2022-10-22T11:39:32.989Z,75523.72
2022-10-22T11:42:04.748Z,75515.56
2022-10-22T11:44:33.606Z,75517.59
2022-10-22T11:47:16.609Z,75523.72
2022-10-22T11:49:47.263Z,75521.69
2022-10-22T11:52:29.129Z,75523.72
2022-10-22T11:54:58.784Z,75507.41
2022-10-22T11:57:29.714Z,75511.47
2022-10-22T11:59:59.786Z,75515.56
2022-10-22T12:02:41.020Z,75509.44
2022-10-22T12:05:43.053Z,75517.59
2022-10-22T12:08:25.627Z,75527.78
2022-10-22T12:11:14.836Z,75523.72
2022-10-22T12:14:03.386Z,75525.75
2022-10-22T12:16:55.280Z,75527.78
2022-10-22T12:19:30.278Z,75531.88
2022-10-22T12:22:01.361Z,75529.84
2022-10-22T12:24:35.674Z,75523.72
2022-10-22T12:27:03.602Z,75523.72
2022-10-22T12:29:34.070Z,75513.53
2022-10-22T12:32:05.374Z,75527.78
2022-10-22T12:34:34.235Z,75523.72
2022-10-22T12:37:05.903Z,75523.72
2022-10-22T12:39:35.524Z,75515.56
2022-10-22T12:42:06.640Z,75503.34
2022-10-22T12:44:34.927Z,75507.41
2022-10-22T12:47:03.031Z,75495.19
2022-10-22T12:49:37.398Z,75495.19
2022-10-22T12:52:10.861Z,75507.41
2022-10-22T12:54:42.800Z,75501.28
2022-10-22T12:57:15.460Z,75507.41
2022-10-22T12:59:48.886Z,75503.34
2022-10-22T13:02:22.565Z,75503.34
2022-10-22T13:05:15.959Z,75503.34
2022-10-22T13:07:48.110Z,75511.47
2022-10-22T13:10:25.967Z,75499.25
2022-10-22T13:12:57.273Z,75507.41
2022-10-22T13:15:37.490Z,75503.34
2022-10-22T13:18:15.059Z,75499.25
2022-10-22T13:20:52.685Z,75501.28
2022-10-22T13:23:22.819Z,75497.22
2022-10-22T13:26:01.388Z,75501.28
2022-10-22T13:28:31.555Z,75489.06
2022-10-22T13:31:00.977Z,75482.94
2022-10-22T13:33:34.401Z,75495.19
2022-10-22T13:36:02.710Z,75499.25
2022-10-22T13:38:31.070Z,75495.19
2022-10-22T13:41:00.664Z,75501.28
2022-10-22T13:43:28.444Z,75489.06
2022-10-22T13:46:00.055Z,75491.09
2022-10-22T13:48:31.116Z,75495.19
2022-10-22T13:50:59.174Z,75493.13
2022-10-22T13:53:28.769Z,75491.09
2022-10-22T13:55:57.423Z,75489.06
2022-10-22T13:58:26.701Z,75493.13
2022-10-22T14:00:57.155Z,75495.19
2022-10-22T14:03:29.187Z,75499.25
2022-10-22T14:05:57.478Z,75503.34
2022-10-22T14:08:27.244Z,75507.41
2022-10-22T14:10:55.385Z,75509.44
2022-10-22T14:13:23.446Z,75503.34
2022-10-22T14:15:53.544Z,75503.34
2022-10-22T14:18:26.882Z,75503.34
2022-10-22T14:20:57.364Z,75499.25
2022-10-22T14:23:27.730Z,75503.34
2022-10-22T14:25:56.109Z,75495.19
2022-10-22T14:28:23.971Z,75493.13
2022-10-22T14:30:53.635Z,75499.25
2022-10-22T14:33:31.391Z,75503.34
2022-10-22T14:35:59.953Z,75501.28
2022-10-22T14:38:27.813Z,75507.41
2022-10-22T14:40:56.245Z,75507.41
2022-10-22T14:43:26.287Z,75511.47
2022-10-22T14:45:56.040Z,75507.41
2022-10-22T14:48:24.142Z,75511.47
2022-10-22T14:50:52.111Z,75511.47
2022-10-22T14:53:20.040Z,75517.59
2022-10-22T14:55:49.222Z,75519.63
2022-10-22T14:58:17.139Z,75511.47
2022-10-22T15:00:45.048Z,75505.38
2022-10-22T15:03:14.284Z,75499.25
2022-10-22T15:05:44.340Z,75507.41
2022-10-22T15:08:13.986Z,75511.47
2022-10-22T15:10:42.090Z,75511.47
2022-10-22T15:13:10.042Z,75511.47
2022-10-22T15:15:40.448Z,75519.63
2022-10-22T15:18:08.681Z,75529.84
2022-10-22T15:20:38.090Z,75531.88
2022-10-22T15:23:06.274Z,75521.69
2022-10-22T15:25:34.137Z,75525.75
2022-10-22T15:28:09.128Z,75531.88
2022-10-22T15:30:37.800Z,75540.03
2022-10-22T15:33:07.239Z,75552.25
2022-10-22T15:35:35.054Z,75554.28
2022-10-22T15:38:06.612Z,75556.34
2022-10-22T15:40:34.430Z,75562.44
2022-10-22T15:43:02.272Z,75572.63
2022-10-22T15:45:30.226Z,75576.72
2022-10-22T15:47:58.445Z,75586.91
2022-10-22T15:50:26.262Z,75588.94
2022-10-22T15:52:54.586Z,75593.03
2022-10-22T15:55:23.951Z,75601.19
2022-10-22T15:57:58.009Z,75607.28
2022-10-22T16:00:28.446Z,75621.56
2022-10-22T16:02:56.258Z,75633.78
2022-10-22T16:05:24.090Z,75641.94
2022-10-22T16:07:55.673Z,75658.25
2022-10-22T16:10:25.353Z,75666.41
2022-10-22T16:12:54.596Z,75680.69
2022-10-22T16:15:22.489Z,75686.78
2022-10-22T16:17:52.800Z,75690.88
2022-10-22T16:20:20.787Z,75703.09
2022-10-22T16:22:50.950Z,75711.25
2022-10-22T16:25:18.904Z,75719.41
2022-10-22T16:27:51.630Z,75719.41
2022-10-22T16:30:19.577Z,75727.56
2022-10-22T16:32:47.427Z,75737.75
2022-10-22T16:35:15.663Z,75747.94
2022-10-22T16:37:43.864Z,75752.03
2022-10-22T16:40:13.427Z,75764.25
2022-10-22T16:42:42.068Z,75770.38
2022-10-22T16:45:12.577Z,75780.56
2022-10-22T16:47:43.023Z,75780.56
2022-10-22T16:50:11.269Z,75784.66
2022-10-22T16:52:39.181Z,75796.88
2022-10-22T16:55:07.462Z,75796.88
2022-10-22T16:57:35.957Z,75809.13
2022-10-22T17:00:05.806Z,75813.19
2022-10-22T17:02:35.299Z,75817.25
2022-10-22T17:05:03.272Z,75825.41
2022-10-22T17:07:31.079Z,75825.41
2022-10-22T17:09:58.864Z,75831.53
2022-10-22T17:12:26.677Z,75833.56
2022-10-22T17:14:54.503Z,75833.56
2022-10-22T17:17:22.277Z,75837.66
2022-10-22T17:19:51.437Z,75837.66
2022-10-22T17:22:19.328Z,75839.69
2022-10-22T17:24:47.121Z,75839.69
2022-10-22T17:27:15.161Z,75841.72
2022-10-22T17:29:42.994Z,75837.66
2022-10-22T17:32:10.993Z,75825.41
2022-10-22T17:34:38.939Z,75817.25
2022-10-22T17:37:08.156Z,75813.19
2022-10-22T17:39:35.983Z,75809.13
2022-10-22T17:42:03.929Z,75809.13
2022-10-22T17:44:32.003Z,75809.13
2022-10-22T17:47:01.101Z,75798.91
2022-10-22T17:49:28.946Z,75782.59
2022-10-22T17:51:56.872Z,75784.66
2022-10-22T17:54:26.039Z,75780.56
2022-10-22T17:56:53.906Z,75778.53
2022-10-22T17:59:21.886Z,75784.66
2022-10-22T18:01:49.925Z,75778.53
2022-10-22T18:04:19.985Z,75772.41
2022-10-22T18:06:48.970Z,75764.25
2022-10-22T18:09:18.983Z,75762.22
2022-10-22T18:11:49.803Z,75764.25
2022-10-22T18:14:18.922Z,75772.41
2022-10-22T18:16:50.392Z,75782.59
2022-10-22T18:19:19.996Z,75776.50
2022-10-22T18:21:47.846Z,75782.59
2022-10-22T18:24:16.846Z,75784.66
2022-10-22T18:26:44.906Z,75782.59
2022-10-22T18:29:16.607Z,75776.50
2022-10-22T18:31:44.797Z,75772.41
2022-10-22T18:34:12.855Z,75764.25
2022-10-22T18:36:41.586Z,75770.38
2022-10-22T18:39:09.502Z,75768.34
2022-10-22T18:41:37.653Z,75764.25
2022-10-22T18:44:06.973Z,75772.41
2022-10-22T18:46:38.369Z,75774.47
2022-10-22T18:49:08.015Z,75780.56
2022-10-22T18:51:36.842Z,75782.59
2022-10-22T18:54:18.273Z,75782.59
2022-10-22T18:56:50.398Z,75792.81
2022-10-22T18:59:20.653Z,75800.97
2022-10-22T19:01:51.308Z,75813.19
2022-10-22T19:04:19.201Z,75813.19
2022-10-22T19:06:47.094Z,75817.25
2022-10-22T19:09:15.676Z,75823.38
2022-10-22T19:11:45.023Z,75835.63
2022-10-22T19:14:14.149Z,75841.72
2022-10-22T19:16:41.953Z,75839.69
2022-10-22T19:19:12.706Z,75837.66
2022-10-22T19:21:40.562Z,75843.75
2022-10-22T19:24:10.720Z,75862.13
2022-10-22T19:26:38.739Z,75878.44
2022-10-22T19:29:06.611Z,75870.28
2022-10-22T19:31:34.818Z,75886.56
2022-10-22T19:34:03.484Z,75898.81
2022-10-22T19:36:34.357Z,75906.97
2022-10-22T19:39:02.791Z,75925.31
2022-10-22T19:41:32.391Z,75939.59
2022-10-22T19:44:01.537Z,75943.66
2022-10-22T19:46:32.473Z,75945.69
2022-10-22T19:49:00.720Z,75943.66
2022-10-22T19:51:30.793Z,75955.91
2022-10-22T19:54:01.394Z,75968.13
2022-10-22T19:56:29.866Z,75964.06
2022-10-22T19:58:58.275Z,75964.06
2022-10-22T20:01:26.853Z,75964.06
2022-10-22T20:03:54.944Z,75970.16
2022-10-22T20:06:22.893Z,75964.06
2022-10-22T20:08:55.177Z,75964.06
2022-10-22T20:11:27.466Z,75962.00
2022-10-22T20:13:56.586Z,75972.22
2022-10-22T20:16:27.122Z,75972.22
2022-10-22T20:18:55.259Z,75968.13
2022-10-22T20:21:23.350Z,75974.25
2022-10-22T20:23:54.205Z,75976.28
2022-10-22T20:26:23.903Z,75972.22
2022-10-22T20:28:53.920Z,75974.25
2022-10-22T20:31:24.006Z,75972.22
2022-10-22T20:33:52.169Z,75980.34
2022-10-22T20:36:22.663Z,75988.50
2022-10-22T20:38:51.079Z,75984.44
2022-10-22T20:41:21.066Z,75988.50
2022-10-22T20:43:54.245Z,75992.59
2022-10-22T20:46:27.071Z,75992.59
2022-10-22T20:48:57.415Z,75998.72
2022-10-22T20:51:25.313Z,75996.66
2022-10-22T20:53:53.107Z,76000.75
2022-10-22T20:56:21.158Z,76004.81
2022-10-22T20:58:50.184Z,76025.22
2022-10-22T21:01:21.837Z,76023.19
2022-10-22T21:03:52.480Z,76029.28
2022-10-22T21:06:23.247Z,76033.38
2022-10-22T21:08:52.011Z,76031.31
2022-10-22T21:11:20.679Z,76051.72
2022-10-22T21:13:48.789Z,76061.91
2022-10-22T21:16:19.571Z,76070.06
2022-10-22T21:18:48.273Z,76082.28
2022-10-22T21:21:19.080Z,76084.34
2022-10-22T21:23:47.711Z,76094.53
2022-10-22T21:26:15.782Z,76106.75
2022-10-22T21:28:43.625Z,76112.88
2022-10-22T21:31:18.655Z,76123.06
2022-10-22T21:33:46.577Z,76127.16
2022-10-22T21:36:15.050Z,76127.16
2022-10-22T21:38:46.214Z,76133.25
2022-10-22T21:41:17.288Z,76131.22
2022-10-22T21:43:46.434Z,76127.16
2022-10-22T21:46:16.014Z,76127.16
2022-10-22T21:48:44.390Z,76123.06
2022-10-22T21:51:13.839Z,76131.22
2022-10-22T21:53:42.414Z,76147.53
2022-10-22T21:56:15.323Z,76155.69
2022-10-22T21:58:43.477Z,76161.81
2022-10-22T22:01:12.502Z,76169.97
2022-10-22T22:03:42.654Z,76176.09
2022-10-22T22:06:10.521Z,76178.13
2022-10-22T22:08:38.739Z,76176.09
2022-10-22T22:11:09.278Z,76186.28
2022-10-22T22:13:38.829Z,76192.41
2022-10-22T22:16:09.775Z,76188.31
2022-10-22T22:18:38.346Z,76188.31
2022-10-22T22:21:08.028Z,76196.47
2022-10-22T22:23:38.057Z,76196.47
2022-10-22T22:26:06.495Z,76208.69
2022-10-22T22:28:35.322Z,76210.75
2022-10-22T22:31:13.364Z,76216.84
2022-10-22T22:33:41.218Z,76225.00
2022-10-22T22:36:10.096Z,76220.94
2022-10-22T22:38:37.986Z,76218.91
2022-10-22T22:41:05.971Z,76227.06
2022-10-22T22:43:33.958Z,76233.16
2022-10-22T22:46:04.669Z,76241.31
2022-10-22T22:48:32.697Z,76241.31
2022-10-22T22:51:00.718Z,76241.31
2022-10-22T22:53:29.026Z,76257.63
2022-10-22T22:56:04.923Z,76265.78
2022-10-22T22:58:32.851Z,76273.94
2022-10-22T23:01:13.856Z,76265.78
2022-10-22T23:03:42.045Z,76271.91
2022-10-22T23:06:09.907Z,76273.94
2022-10-22T23:08:37.967Z,76276.00
2022-10-22T23:11:07.337Z,76286.19
2022-10-22T23:13:36.300Z,76286.19
2022-10-22T23:16:06.907Z,76288.22
2022-10-22T23:18:36.215Z,76292.28
2022-10-22T23:21:06.580Z,76298.41
2022-10-22T23:23:34.859Z,76308.59
2022-10-22T23:26:03.189Z,76310.66
2022-10-22T23:28:31.013Z,76314.72
2022-10-22T23:30:58.803Z,76312.69
2022-10-22T23:33:26.645Z,76308.59
2022-10-22T23:35:55.871Z,76294.34
2022-10-22T23:38:23.759Z,76288.22
2022-10-22T23:40:56.429Z,76290.25
2022-10-22T23:43:24.468Z,76288.22
2022-10-22T23:45:53.052Z,76294.34
2022-10-22T23:48:21.635Z,76306.56
2022-10-22T23:50:50.071Z,76314.72
2022-10-22T23:53:19.356Z,76322.88
2022-10-22T23:55:47.177Z,76326.97
2022-10-22T23:58:15.206Z,76322.88
